Time;durP1;ratioP1;P1;durP2;ratioP2;P2;SDS_P1;SDS_P2;PMS_P1;PMS_P2;Temp;Humidity;BMP_temperature;BMP_pressure;BME280_temperature;BME280_humidity;BME280_pressure;Samples;Min_cycle;Max_cycle;Signal;HPM_P1;HPM_P2
2022/07/16 00:02:39;;;;;;;12.60;7.50;;;;;;;27.28;76.07;100531.87;1751050;82;21056;-77
2022/07/16 00:05:08;;;;;;;11.95;6.92;;;;;;;27.28;76.00;100534.52;1739918;81;21089;-79
2022/07/16 00:07:36;;;;;;;13.03;7.20;;;;;;;27.29;76.29;100528.25;1739359;80;21214;-78
2022/07/16 00:10:06;;;;;;;8.90;6.90;;;;;;;27.24;76.23;100526.62;1744759;82;21030;-78
2022/07/16 00:12:35;;;;;;;10.15;7.40;;;;;;;27.34;75.99;100530.35;1745277;81;21501;-78
2022/07/16 00:15:05;;;;;;;9.80;7.12;;;;;;;27.38;76.11;100529.00;1743868;81;21041;-78
2022/07/16 00:17:33;;;;;;;11.33;7.53;;;;;;;27.38;75.46;100533.78;1747428;82;21065;-78
2022/07/16 00:20:00;;;;;;;10.80;7.47;;;;;;;27.26;75.63;100529.09;1745606;82;21506;-76
2022/07/16 00:22:27;;;;;;;10.28;7.83;;;;;;;27.10;76.08;100525.52;1734098;82;21090;-78
2022/07/16 00:24:54;;;;;;;10.72;7.90;;;;;;;27.14;76.12;100528.64;1754315;81;21081;-79
2022/07/16 00:27:21;;;;;;;11.75;7.37;;;;;;;27.13;76.33;100526.98;1748965;81;21116;-79
2022/07/16 00:29:48;;;;;;;12.07;7.60;;;;;;;27.11;76.59;100527.66;1742523;81;21029;-79
2022/07/16 00:32:16;;;;;;;11.33;7.87;;;;;;;27.07;77.30;100526.36;1744356;82;21104;-78
2022/07/16 00:34:43;;;;;;;11.12;7.90;;;;;;;26.33;79.86;100513.00;1744181;82;21148;-78
2022/07/16 00:37:13;;;;;;;11.48;7.37;;;;;;;26.33;80.95;100519.60;1742265;81;21564;-78
2022/07/16 00:39:41;;;;;;;11.48;7.72;;;;;;;26.94;80.42;100516.38;1731402;82;21140;-78
2022/07/16 00:42:08;;;;;;;15.30;8.30;;;;;;;26.18;81.64;100520.81;1733780;82;21057;-79
2022/07/16 00:44:39;;;;;;;10.00;7.53;;;;;;;25.92;83.72;100518.39;1751315;82;21162;-79
2022/07/16 00:47:06;;;;;;;8.10;7.28;;;;;;;25.89;84.40;100518.72;1741645;82;21502;-78
2022/07/16 00:49:34;;;;;;;12.20;8.03;;;;;;;26.02;84.51;100516.08;1744341;81;21076;-79
2022/07/16 00:52:01;;;;;;;11.35;7.80;;;;;;;25.93;85.34;100518.73;1734252;81;21085;-78
2022/07/16 00:54:29;;;;;;;11.20;7.85;;;;;;;26.01;85.56;100511.28;1742627;82;21093;-79
2022/07/16 00:56:57;;;;;;;11.50;7.80;;;;;;;25.98;85.83;100513.77;1746289;82;21095;-80
2022/07/16 00:59:25;;;;;;;12.05;7.95;;;;;;;25.94;85.63;100516.41;1745505;80;21060;-78
2022/07/16 01:01:52;;;;;;;11.68;7.78;;;;;;;25.84;85.96;100519.70;1742186;82;21082;-78
2022/07/16 01:04:19;;;;;;;12.93;7.90;;;;;;;25.87;86.04;100516.73;1745679;80;21025;-79
2022/07/16 01:06:47;;;;;;;12.25;8.40;;;;;;;25.86;86.98;100519.03;1744258;82;21021;-79
2022/07/16 01:09:15;;;;;;;11.03;8.40;;;;;;;25.77;88.37;100523.98;1740488;82;21529;-78
2022/07/16 01:11:44;;;;;;;13.32;8.38;;;;;;;25.69;89.59;100529.26;1745685;81;21041;-78
2022/07/16 01:14:13;;;;;;;11.43;8.40;;;;;;;25.44;92.06;100537.67;1743092;80;21076;-78
2022/07/16 01:16:40;;;;;;;12.40;8.05;;;;;;;25.42;91.15;100550.19;1754971;81;21548;-78
2022/07/16 01:19:12;;;;;;;13.40;8.73;;;;;;;25.31;92.98;100553.97;1745484;81;21447;-78
2022/07/16 01:21:42;;;;;;;14.30;8.40;;;;;;;25.21;93.38;100549.31;1724913;82;21380;-78
2022/07/16 01:24:09;;;;;;;13.20;8.00;;;;;;;25.48;92.15;100548.21;1738255;81;21040;-78
2022/07/16 01:26:37;;;;;;;12.80;8.43;;;;;;;25.92;90.69;100544.77;1742536;80;21100;-79
2022/07/16 01:29:05;;;;;;;11.48;8.28;;;;;;;25.86;90.80;100549.36;1741483;81;21478;-80
2022/07/16 01:31:32;;;;;;;10.20;7.85;;;;;;;25.77;91.55;100552.98;1743091;81;21013;-79
2022/07/16 01:36:59;;;;;;;13.08;8.50;;;;;;;26.05;90.61;100560.07;1740260;81;21478;-78
2022/07/16 01:39:28;;;;;;;9.28;8.05;;;;;;;26.15;89.48;100560.71;1723095;81;21201;-79
2022/07/16 01:41:58;;;;;;;13.00;8.03;;;;;;;25.94;89.12;100553.84;1742638;82;21077;-79
2022/07/16 01:44:28;;;;;;;10.65;7.90;;;;;;;26.12;89.04;100547.88;1751557;82;21029;-79
2022/07/16 01:46:57;;;;;;;10.93;8.63;;;;;;;26.18;89.19;100552.98;1744458;81;20994;-77
2022/07/16 01:49:30;;;;;;;9.88;7.90;;;;;;;26.21;89.21;100556.58;1747132;80;21560;-78
2022/07/16 01:52:04;;;;;;;12.05;8.00;;;;;;;26.28;89.31;100558.89;1753542;81;21072;-79
2022/07/16 01:54:31;;;;;;;12.28;8.30;;;;;;;26.24;89.33;100560.69;1744121;82;21073;-79
2022/07/16 01:56:59;;;;;;;10.18;7.60;;;;;;;26.33;89.23;100561.01;1738282;82;21045;-78
2022/07/16 01:59:26;;;;;;;11.15;8.00;;;;;;;26.34;89.22;100559.53;1748888;82;21069;-79
2022/07/16 02:01:53;;;;;;;10.58;8.48;;;;;;;26.42;89.13;100563.97;1744246;81;21014;-78
2022/07/16 02:04:20;;;;;;;8.75;7.75;;;;;;;26.43;89.11;100570.88;1744005;80;21167;-79
2022/07/16 02:06:48;;;;;;;11.40;8.43;;;;;;;26.68;89.16;100565.53;1745438;80;21079;-77
2022/07/16 02:09:17;;;;;;;13.40;8.30;;;;;;;26.69;87.55;100568.52;1738618;82;21045;-80
2022/07/16 02:11:46;;;;;;;9.90;7.92;;;;;;;26.87;89.31;100568.27;1745549;82;21069;-78
2022/07/16 02:14:15;;;;;;;12.53;8.33;;;;;;;27.44;85.54;100575.06;1743439;81;21046;-79
2022/07/16 02:16:42;;;;;;;11.70;8.78;;;;;;;26.79;87.34;100579.70;1741007;80;21168;-79
2022/07/16 02:19:09;;;;;;;10.75;8.30;;;;;;;26.51;90.99;100570.03;1748182;80;21548;-77
2022/07/16 02:21:38;;;;;;;15.05;7.85;;;;;;;26.32;93.96;100579.98;1750082;80;21045;-79
2022/07/16 02:24:06;;;;;;;11.48;8.08;;;;;;;26.38;94.96;100578.50;1724950;82;21057;-80
2022/07/16 02:26:35;;;;;;;10.78;7.70;;;;;;;26.48;95.34;100583.09;1718423;82;21137;-78
2022/07/16 02:29:03;;;;;;;9.15;7.62;;;;;;;26.63;95.92;100580.58;1747092;80;21044;-80
2022/07/16 02:31:31;;;;;;;10.80;8.13;;;;;;;26.74;96.43;100581.54;1739652;80;21050;-78
2022/07/16 02:33:58;;;;;;;13.20;8.73;;;;;;;26.91;95.94;100584.10;1738404;81;21017;-79
2022/07/16 02:36:26;;;;;;;10.60;8.68;;;;;;;27.14;96.31;100578.84;1743203;80;21050;-79
2022/07/16 02:38:56;;;;;;;9.68;8.55;;;;;;;27.29;95.98;100588.19;1735784;82;21217;-79
2022/07/16 02:41:22;;;;;;;10.75;8.45;;;;;;;27.44;95.25;100592.25;1746224;80;21033;-78
2022/07/16 02:43:49;;;;;;;11.70;10.50;;;;;;;28.45;90.18;100589.70;1751029;80;21034;-78
2022/07/16 02:46:17;;;;;;;13.05;10.70;;;;;;;27.35;93.98;100594.95;1743903;82;21037;-79
2022/07/16 02:48:45;;;;;;;16.97;13.38;;;;;;;27.86;92.52;100592.23;1748331;82;21052;-78
2022/07/16 02:51:12;;;;;;;29.55;22.67;;;;;;;27.86;92.76;100593.55;1742894;82;21088;-78
2022/07/16 02:53:39;;;;;;;25.55;21.70;;;;;;;27.78;93.07;100591.31;1735751;81;21061;-79
2022/07/16 02:56:07;;;;;;;26.57;22.70;;;;;;;27.76;93.46;100590.67;1751407;81;21549;-80
2022/07/16 02:58:35;;;;;;;29.60;24.30;;;;;;;27.41;95.97;100589.94;1747001;81;21068;-79
2022/07/16 03:01:03;;;;;;;25.65;21.37;;;;;;;27.74;94.89;100587.38;1744625;81;21073;-77
2022/07/16 03:03:31;;;;;;;29.32;22.62;;;;;;;27.78;94.05;100590.50;1737322;80;21018;-78
2022/07/16 03:05:58;;;;;;;32.88;24.10;;;;;;;28.01;93.40;100589.66;1743494;82;21093;-78
2022/07/16 03:08:26;;;;;;;27.27;22.62;;;;;;;27.69;92.84;100592.87;1732729;81;21053;-79
2022/07/16 03:10:53;;;;;;;31.25;23.77;;;;;;;27.86;95.15;100596.19;1748832;82;21018;-79
2022/07/16 03:13:21;;;;;;;26.97;22.65;;;;;;;27.71;94.04;100596.16;1741800;82;21034;-79
2022/07/16 03:15:48;;;;;;;33.75;25.57;;;;;;;28.04;93.73;100593.25;1757355;81;20997;-79
2022/07/16 03:18:15;;;;;;;35.45;27.05;;;;;;;28.26;91.87;100592.87;1733702;82;21026;-76
2022/07/16 03:20:42;;;;;;;33.20;26.77;;;;;;;28.42;90.72;100594.02;1735381;81;21093;-78
2022/07/16 03:23:10;;;;;;;40.28;30.30;;;;;;;28.47;90.14;100594.31;1738065;82;21015;-77
2022/07/16 03:25:37;;;;;;;44.23;30.92;;;;;;;28.31;91.19;100600.59;1742400;80;21065;-78
2022/07/16 03:28:05;;;;;;;43.65;34.08;;;;;;;28.39;91.17;100599.70;1748130;81;21034;-78
2022/07/16 03:30:33;;;;;;;43.87;33.00;;;;;;;28.23;91.90;100599.36;1745036;82;21045;-79
2022/07/16 03:33:00;;;;;;;43.60;33.00;;;;;;;28.35;91.55;100597.09;1741583;82;21014;-77
2022/07/16 03:35:29;;;;;;;41.80;31.93;;;;;;;29.19;89.43;100598.08;1742916;82;21006;-77
2022/07/16 03:40:42;;;;;;;49.93;39.05;;;;;;;29.78;84.77;100601.02;1746964;82;21093;-78
2022/07/16 03:43:09;;;;;;;54.03;40.58;;;;;;;29.79;83.66;100601.34;1739271;81;21046;-78
2022/07/16 03:45:38;;;;;;;57.73;42.48;;;;;;;29.70;83.53;100603.25;1750709;81;21533;-77
2022/07/16 03:48:05;;;;;;;53.17;41.23;;;;;;;29.55;83.89;100605.99;1750405;81;21085;-77
2022/07/16 03:50:32;;;;;;;56.63;42.03;;;;;;;29.44;84.60;100616.28;1745657;81;21082;-78
2022/07/16 03:52:59;;;;;;;66.60;48.38;;;;;;;29.51;84.55;100611.88;1750386;81;21084;-78
2022/07/16 03:55:27;;;;;;;68.33;50.98;;;;;;;29.56;84.27;100616.09;1743035;80;21061;-76
2022/07/16 03:57:54;;;;;;;74.07;53.52;;;;;;;29.35;85.48;100623.55;1738839;82;21121;-78
2022/07/16 04:00:21;;;;;;;73.40;52.98;;;;;;;29.40;86.12;100621.64;1745401;80;21565;-77
2022/07/16 04:02:48;;;;;;;73.40;52.40;;;;;;;29.32;86.23;100624.75;1743616;81;21089;-78
2022/07/16 04:05:16;;;;;;;68.33;48.63;;;;;;;29.35;85.95;100625.69;1748157;82;21064;-77
2022/07/16 04:07:44;;;;;;;60.10;41.90;;;;;;;29.53;85.73;100625.25;1742879;81;21558;-78
2022/07/16 04:10:13;;;;;;;56.50;40.30;;;;;;;29.60;85.15;100627.14;1744242;80;21038;-78
2022/07/16 04:12:41;;;;;;;54.85;41.35;;;;;;;29.62;84.95;100630.43;1741389;80;21085;-78
2022/07/16 04:15:09;;;;;;;54.65;41.55;;;;;;;29.73;84.41;100637.92;1738085;82;21066;-78
2022/07/16 04:17:36;;;;;;;61.08;45.05;;;;;;;29.73;84.44;100634.77;1741943;81;21064;-78
2022/07/16 04:20:06;;;;;;;63.33;46.85;;;;;;;29.72;84.47;100640.25;1740593;81;21565;-80
2022/07/16 04:22:34;;;;;;;65.57;48.80;;;;;;;29.50;85.36;100637.58;1735491;81;21140;-78
2022/07/16 04:25:01;;;;;;;80.55;58.15;;;;;;;28.15;92.26;100641.28;1743412;81;21837;-78
2022/07/16 04:27:28;;;;;;;87.97;66.00;;;;;;;28.37;93.18;100647.53;1746215;81;21033;-78
2022/07/16 04:29:57;;;;;;;84.92;59.60;;;;;;;29.51;89.06;100645.84;1742935;81;20998;-77
2022/07/16 04:32:25;;;;;;;72.82;55.63;;;;;;;29.55;87.98;100652.92;1733251;82;20982;-77
2022/07/16 04:34:53;;;;;;;67.03;50.70;;;;;;;27.85;97.07;100656.22;1749322;81;20977;-77
2022/07/16 04:37:20;;;;;;;59.23;44.25;;;;;;;28.03;98.72;100652.48;1737367;82;20993;-78
2022/07/16 04:39:49;;;;;;;48.28;38.50;;;;;;;28.16;98.29;100653.53;1735560;82;21068;-77
2022/07/16 04:42:17;;;;;;;40.03;32.48;;;;;;;28.63;94.62;100658.70;1743299;80;22313;-77
2022/07/16 04:44:44;;;;;;;39.58;31.75;;;;;;;29.60;90.67;100664.28;1739239;81;21035;-77
2022/07/16 04:47:12;;;;;;;39.42;31.02;;;;;;;28.72;95.68;100668.22;1741081;81;21016;-79
2022/07/16 04:49:39;;;;;;;40.70;32.38;;;;;;;28.38;96.42;100665.55;1748038;80;20994;-77
2022/07/16 04:52:07;;;;;;;29.95;24.20;;;;;;;28.16;98.25;100672.06;1742470;81;21033;-77
2022/07/16 04:54:35;;;;;;;33.65;27.67;;;;;;;28.37;97.49;100668.71;1722323;82;21104;-77
2022/07/16 04:57:02;;;;;;;28.60;22.62;;;;;;;28.35;97.24;100677.84;1725474;82;21020;-76
2022/07/16 04:59:29;;;;;;;29.10;21.62;;;;;;;28.40;97.58;100669.35;1736891;82;21503;-76
2022/07/16 05:04:42;;;;;;;16.82;14.38;;;;;;;28.62;96.42;100679.08;1731112;82;21021;-78
2022/07/16 05:07:09;;;;;;;14.25;12.20;;;;;;;28.45;98.19;100677.59;1738703;82;21021;-79
2022/07/16 05:09:37;;;;;;;12.75;11.43;;;;;;;29.19;95.45;100674.96;1738850;81;21008;-77
2022/07/16 05:12:06;;;;;;;12.85;11.55;;;;;;;28.72;96.87;100672.20;1733969;82;21014;-77
2022/07/16 05:14:33;;;;;;;13.68;12.20;;;;;;;28.35;99.46;100672.04;1735651;81;21119;-78
2022/07/16 05:17:01;;;;;;;13.60;12.43;;;;;;;28.76;97.82;100674.28;1750565;81;21055;-79
2022/07/16 05:19:29;;;;;;;15.60;13.98;;;;;;;28.83;96.93;100677.02;1744528;81;20993;-78
2022/07/16 05:21:56;;;;;;;15.18;13.58;;;;;;;28.54;98.04;100677.34;1741519;80;21008;-80
2022/07/16 05:24:23;;;;;;;16.52;13.50;;;;;;;28.67;97.64;100677.20;1726930;81;21016;-78
2022/07/16 05:26:51;;;;;;;16.52;14.35;;;;;;;30.03;90.36;100681.55;1740769;81;21035;-76
2022/07/16 05:29:18;;;;;;;16.65;14.83;;;;;;;29.44;93.79;100675.95;1741674;81;20986;-78
2022/07/16 05:31:45;;;;;;;16.97;15.20;;;;;;;29.04;95.88;100671.50;1730440;82;20969;-78
2022/07/16 05:34:13;;;;;;;16.95;14.43;;;;;;;29.67;94.15;100675.80;1737094;81;21016;-78
2022/07/16 05:36:40;;;;;;;24.15;19.32;;;;;;;30.23;90.35;100689.67;1729888;82;20992;-76
2022/07/16 05:39:09;;;;;;;18.37;16.60;;;;;;;30.10;88.55;100689.08;1727656;82;22526;-78
2022/07/16 05:41:37;;;;;;;46.42;36.28;;;;;;;30.08;87.00;100688.45;1745598;81;21512;-78
2022/07/16 05:44:06;;;;;;;51.48;43.90;;;;;;;29.05;93.57;100692.49;1737182;81;21012;-77
2022/07/16 05:46:34;;;;;;;66.67;54.67;;;;;;;29.34;92.31;100698.30;1733873;82;21015;-79
2022/07/16 05:49:03;;;;;;;73.37;58.90;;;;;;;29.72;90.99;100702.09;1749360;80;20964;-78
2022/07/16 05:51:32;;;;;;;54.40;46.58;;;;;;;29.67;90.33;100703.66;1739114;80;21111;-78
2022/07/16 05:53:59;;;;;;;76.75;62.27;;;;;;;29.13;94.10;100710.98;1737306;82;21014;-77
2022/07/16 05:56:27;;;;;;;83.05;68.78;;;;;;;29.04;93.94;100711.25;1738017;81;21032;-77
2022/07/16 05:59:01;;;;;;;82.12;64.85;;;;;;;29.23;93.60;100700.61;1720982;81;21036;-78
2022/07/16 06:01:24;;;;;;;79.67;62.93;;;;;;;29.16;93.23;100708.48;1739564;81;21466;-78
2022/07/16 06:03:53;;;;;;;76.33;61.35;;;;;;;29.02;94.63;100697.36;1735715;82;21043;-78
2022/07/16 06:06:23;;;;;;;65.32;51.15;;;;;;;29.48;92.74;100698.44;1745144;81;22234;-78
2022/07/16 06:08:51;;;;;;;48.52;41.45;;;;;;;29.06;93.41;100698.13;1730037;82;21089;-77
2022/07/16 06:11:19;;;;;;;34.03;28.02;;;;;;;28.71;94.19;100695.22;1729921;81;21044;-76
2022/07/16 06:13:46;;;;;;;31.20;26.70;;;;;;;28.50;96.14;100687.16;1736509;82;21021;-76
2022/07/16 06:16:14;;;;;;;31.05;27.70;;;;;;;28.66;95.85;100686.17;1721299;80;21023;-75
2022/07/16 06:18:42;;;;;;;29.15;26.25;;;;;;;28.71;95.95;100693.05;1729676;81;21041;-76
2022/07/16 06:21:10;;;;;;;29.90;26.95;;;;;;;28.21;98.18;100692.69;1730600;80;21071;-77
2022/07/16 06:23:37;;;;;;;29.87;26.62;;;;;;;28.34;98.72;100693.39;1737788;81;21018;-76
2022/07/16 06:26:04;;;;;;;29.67;26.60;;;;;;;28.06;99.92;100693.98;1749309;81;20988;-77
2022/07/16 06:28:32;;;;;;;30.92;27.70;;;;;;;28.40;98.50;100690.53;1748899;80;21057;-78
2022/07/16 06:31:00;;;;;;;34.27;30.57;;;;;;;28.70;96.87;100700.69;1737103;81;21095;-78
2022/07/16 06:33:28;;;;;;;33.48;30.08;;;;;;;28.51;97.68;100701.55;1725059;82;21114;-77
2022/07/16 06:35:56;;;;;;;35.15;30.90;;;;;;;28.61;97.21;100701.77;1747709;81;21018;-79
2022/07/16 06:38:24;;;;;;;33.35;29.90;;;;;;;28.78;96.55;100710.39;1731645;82;21076;-77
2022/07/16 06:40:51;;;;;;;33.20;29.90;;;;;;;28.89;95.47;100708.11;1740485;81;21024;-77
2022/07/16 06:43:18;;;;;;;32.03;28.75;;;;;;;29.09;93.95;100712.83;1728094;81;21528;-77
2022/07/16 06:45:46;;;;;;;32.20;27.37;;;;;;;28.87;95.29;100711.41;1745658;81;21078;-79
2022/07/16 06:48:13;;;;;;;29.70;25.48;;;;;;;28.93;94.32;100720.47;1748242;81;21047;-79
2022/07/16 06:50:41;;;;;;;26.50;23.85;;;;;;;28.89;96.33;100726.66;1727735;82;21120;-78
2022/07/16 06:53:08;;;;;;;28.05;25.25;;;;;;;27.97;98.77;100734.21;1721432;82;21061;-78
2022/07/16 06:55:35;;;;;;;26.55;22.48;;;;;;;28.74;97.28;100730.60;1740677;81;21192;-77
2022/07/16 06:58:02;;;;;;;24.87;22.13;;;;;;;28.43;98.31;100723.25;1740840;81;21202;-78
2022/07/16 07:00:29;;;;;;;23.95;21.40;;;;;;;28.21;98.95;100722.31;1749692;81;21160;-78
2022/07/16 07:02:56;;;;;;;24.30;21.87;;;;;;;29.33;97.27;100721.84;1721619;82;21555;-76
2022/07/16 07:05:24;;;;;;;24.00;21.37;;;;;;;30.33;87.56;100730.88;1730197;82;21018;-77
2022/07/16 07:07:51;;;;;;;24.12;21.57;;;;;;;30.52;84.98;100732.55;1733611;81;21064;-77
2022/07/16 07:10:19;;;;;;;22.27;19.95;;;;;;;30.52;84.98;100732.55;1713521;82;21105;-77
2022/07/16 07:12:46;;;;;;;23.45;21.10;;;;;;;30.67;83.45;100733.23;1714341;83;21084;-76
2022/07/16 07:15:14;;;;;;;22.93;20.68;;;;;;;30.38;83.43;100724.98;1735129;82;21226;-77
2022/07/16 07:17:42;;;;;;;22.48;19.98;;;;;;;30.14;85.35;100730.97;1727357;81;21162;-76
2022/07/16 07:20:11;;;;;;;27.93;22.13;;;;;;;30.14;85.35;100730.97;1732069;80;21550;-80
2022/07/16 07:22:39;;;;;;;30.05;23.05;;;;;;;29.70;93.80;100728.47;1741408;81;21044;-78
2022/07/16 07:25:09;;;;;;;26.85;23.90;;;;;;;28.53;100.00;100731.83;1740514;81;21059;-78
2022/07/16 07:27:38;;;;;;;27.32;24.55;;;;;;;28.84;100.00;100735.64;1739545;82;21012;-79
2022/07/16 07:30:06;;;;;;;27.90;25.12;;;;;;;28.76;100.00;100745.00;1740632;82;21003;-80
2022/07/16 07:32:36;;;;;;;28.23;25.43;;;;;;;28.81;100.00;100736.50;1745105;82;21040;-81
2022/07/16 07:35:06;;;;;;;28.95;25.80;;;;;;;29.01;100.00;100746.06;1737223;81;21066;-81
2022/07/16 07:37:33;;;;;;;29.07;25.88;;;;;;;28.25;100.00;100742.95;1750712;81;21561;-79
2022/07/16 07:40:05;;;;;;;28.73;25.75;;;;;;;27.71;100.00;100741.13;1744934;80;21103;-80
2022/07/16 07:42:32;;;;;;;30.37;27.10;;;;;;;27.09;100.00;100745.00;1735773;81;21075;-80
2022/07/16 07:44:59;;;;;;;29.82;26.65;;;;;;;28.56;100.00;100737.56;1731645;82;21102;-79
2022/07/16 07:47:28;;;;;;;30.97;27.87;;;;;;;28.64;100.00;100741.97;1736123;81;21035;-78
2022/07/16 07:49:56;;;;;;;30.37;27.48;;;;;;;28.76;100.00;100739.70;1734626;82;21086;-77
2022/07/16 07:52:23;;;;;;;29.32;26.42;;;;;;;27.45;100.00;100737.45;1732006;82;21047;-78
2022/07/16 07:54:51;;;;;;;31.10;27.77;;;;;;;27.65;100.00;100739.17;1721593;82;21146;-78
2022/07/16 07:57:18;;;;;;;30.10;26.35;;;;;;;27.85;100.00;100741.39;1724839;81;21070;-79
2022/07/16 07:59:45;;;;;;;31.02;27.82;;;;;;;27.93;100.00;100738.72;1742163;82;21080;-77
2022/07/16 08:02:13;;;;;;;29.05;26.07;;;;;;;27.89;100.00;100740.07;1743015;81;21011;-77
2022/07/16 08:04:41;;;;;;;28.42;25.25;;;;;;;27.91;100.00;100747.33;1740582;82;21043;-77
2022/07/16 08:07:10;;;;;;;29.18;26.33;;;;;;;28.95;100.00;100739.66;1726175;82;22336;-78
2022/07/16 08:09:37;;;;;;;28.90;25.88;;;;;;;28.14;100.00;100742.88;1730023;81;21517;-76
2022/07/16 08:12:04;;;;;;;28.23;25.32;;;;;;;29.23;100.00;100739.86;1726685;82;21107;-79
2022/07/16 08:14:31;;;;;;;27.55;24.75;;;;;;;28.59;100.00;100739.53;1734392;82;21047;-77
2022/07/16 08:16:59;;;;;;;26.90;24.30;;;;;;;28.62;100.00;100736.54;1740486;82;21061;-79
2022/07/16 08:19:26;;;;;;;24.00;21.70;;;;;;;28.89;100.00;100737.26;1734975;81;21044;-78
2022/07/16 08:21:54;;;;;;;23.70;21.23;;;;;;;29.06;100.00;100730.45;1731856;82;21035;-78
2022/07/16 08:27:07;;;;;;;22.95;20.65;;;;;;;29.02;100.00;100732.64;1733584;82;21078;-80
2022/07/16 08:29:34;;;;;;;22.35;20.08;;;;;;;29.02;100.00;100737.94;1734213;82;21085;-77
2022/07/16 08:32:02;;;;;;;22.87;20.30;;;;;;;29.11;100.00;100734.70;1731213;82;21064;-78
2022/07/16 08:34:29;;;;;;;20.92;18.92;;;;;;;28.76;100.00;100737.05;1727006;82;21064;-77
2022/07/16 08:36:57;;;;;;;22.05;19.82;;;;;;;29.93;94.67;100737.12;1736202;82;21059;-77
2022/07/16 08:39:24;;;;;;;22.17;19.82;;;;;;;30.38;93.66;100742.75;1722806;82;21035;-77
2022/07/16 08:41:53;;;;;;;22.32;20.08;;;;;;;30.38;93.66;100742.75;1725628;82;21098;-77
2022/07/16 08:44:21;;;;;;;21.12;18.95;;;;;;;30.30;93.23;100740.53;1742090;82;21516;-75
2022/07/16 08:46:49;;;;;;;21.62;19.27;;;;;;;29.88;91.85;100738.17;1721702;82;21024;-77
2022/07/16 08:49:18;;;;;;;21.35;19.25;;;;;;;30.03;92.26;100741.27;1739984;82;21016;-75
2022/07/16 08:51:47;;;;;;;33.90;22.30;;;;;;;30.55;90.15;100740.92;1737517;82;21506;-76
2022/07/16 08:54:20;;;;;;;23.77;20.60;;;;;;;30.87;87.48;100745.84;1736535;82;21559;-74
2022/07/16 08:56:50;;;;;;;21.05;18.80;;;;;;;30.87;87.59;100740.53;1736838;82;21556;-75
2022/07/16 08:59:17;;;;;;;19.98;18.07;;;;;;;30.34;87.67;100739.66;1731468;82;21129;-76
2022/07/16 09:01:45;;;;;;;21.07;18.95;;;;;;;30.91;87.72;100738.63;1735942;81;21066;-75
2022/07/16 09:04:13;;;;;;;20.15;18.25;;;;;;;31.13;85.22;100734.05;1740374;82;21048;-75
2022/07/16 09:06:41;;;;;;;19.17;17.23;;;;;;;31.10;83.87;100741.11;1739752;82;21051;-76
2022/07/16 09:09:09;;;;;;;21.52;19.32;;;;;;;30.97;83.32;100734.89;1738646;82;21000;-76
2022/07/16 09:11:36;;;;;;;18.60;16.80;;;;;;;32.03;79.04;100725.14;1743290;81;21027;-77
2022/07/16 09:14:10;;;;;;;20.52;18.57;;;;;;;30.84;81.74;100732.93;1716476;81;21027;-77
2022/07/16 09:16:41;;;;;;;18.42;16.62;;;;;;;30.92;81.27;100738.97;1725954;82;21038;-75
2022/07/16 09:19:21;;;;;;;19.45;16.65;;;;;;;31.06;81.34;100738.50;1732627;82;21079;-77
2022/07/16 09:22:11;;;;;;;18.42;16.62;;;;;;;31.43;80.65;100731.59;1734217;81;22279;-76
2022/07/16 09:24:50;;;;;;;17.62;15.93;;;;;;;30.91;79.15;100733.84;1739513;82;21023;-75
2022/07/16 09:27:25;;;;;;;17.95;16.25;;;;;;;29.99;81.18;100730.23;1744874;82;21164;-75
2022/07/16 09:30:02;;;;;;;17.50;14.98;;;;;;;30.46;79.73;100731.47;1726830;81;21019;-76
2022/07/16 09:32:36;;;;;;;19.70;15.65;;;;;;;31.04;77.93;100721.11;1734959;82;21504;-78
2022/07/16 09:35:11;;;;;;;17.80;15.93;;;;;;;31.42;76.75;100720.66;1730146;82;21020;-75
2022/07/16 09:37:53;;;;;;;18.48;16.65;;;;;;;32.05;74.96;100727.89;1725845;82;21563;-77
2022/07/16 09:40:47;;;;;;;17.73;15.83;;;;;;;31.99;74.21;100723.35;1711155;82;21068;-77
2022/07/16 09:43:19;;;;;;;16.87;15.23;;;;;;;32.42;72.79;100724.81;1730185;82;21028;-78
2022/07/16 09:45:59;;;;;;;19.07;16.48;;;;;;;31.90;71.94;100729.39;1727404;82;21114;-77
2022/07/16 09:48:37;;;;;;;16.95;15.35;;;;;;;32.27;71.47;100722.38;1728130;82;21011;-78
2022/07/16 09:51:28;;;;;;;21.62;16.02;;;;;;;31.95;72.03;100722.13;1726965;82;21106;-78
2022/07/16 09:53:56;;;;;;;18.95;16.30;;;;;;;31.93;72.53;100718.84;1727462;82;21113;-77
2022/07/16 09:56:28;;;;;;;23.32;20.12;;;;;;;31.30;74.02;100725.20;1725393;81;21597;-77
2022/07/16 09:58:58;;;;;;;26.02;23.22;;;;;;;31.79;73.27;100711.86;1725015;82;21023;-78
2022/07/16 10:01:26;;;;;;;21.60;19.23;;;;;;;31.89;72.90;100711.77;1733221;82;21593;-76
2022/07/16 10:03:53;;;;;;;25.82;21.23;;;;;;;31.98;72.45;100707.60;1734500;82;21094;-77
2022/07/16 10:06:22;;;;;;;19.60;17.60;;;;;;;31.93;72.20;100709.00;1730468;81;21122;-77
2022/07/16 10:08:49;;;;;;;23.45;20.32;;;;;;;32.34;70.57;100708.03;1730756;82;21049;-77
2022/07/16 10:11:16;;;;;;;25.27;20.92;;;;;;;32.12;70.46;100703.95;1730687;82;21036;-77
2022/07/16 10:13:45;;;;;;;22.52;18.50;;;;;;;32.27;70.46;100704.54;1732102;82;20993;-78
2022/07/16 10:16:13;;;;;;;18.92;16.90;;;;;;;32.70;70.17;100708.61;1727852;82;21570;-77
2022/07/16 10:18:47;;;;;;;18.10;16.27;;;;;;;32.96;68.35;100710.91;1736321;82;21595;-78
2022/07/16 10:21:21;;;;;;;21.15;18.62;;;;;;;33.35;67.15;100701.11;1712351;82;21024;-75
2022/07/16 10:24:06;;;;;;;19.98;17.87;;;;;;;33.26;66.53;100700.02;1728099;82;21111;-75
2022/07/16 10:26:35;;;;;;;16.75;15.05;;;;;;;33.20;65.76;100699.55;1728989;82;21139;-77
2022/07/16 10:29:04;;;;;;;17.65;15.72;;;;;;;33.75;65.54;100696.38;1725934;82;21534;-74
2022/07/16 10:34:37;;;;;;;18.95;16.95;;;;;;;34.26;64.17;100701.23;1728787;82;21047;-76
2022/07/16 10:37:08;;;;;;;18.57;16.35;;;;;;;33.53;63.14;100703.36;1733433;82;21066;-75
2022/07/16 10:39:55;;;;;;;19.82;17.75;;;;;;;33.17;63.87;100700.48;1742745;81;21179;-76
2022/07/16 10:42:24;;;;;;;23.47;19.55;;;;;;;32.76;66.11;100706.95;1751866;81;21047;-76
2022/07/16 10:44:52;;;;;;;24.80;20.80;;;;;;;32.57;66.36;100701.99;1735756;82;21036;-76
2022/07/16 10:47:20;;;;;;;31.15;25.60;;;;;;;32.34;66.55;100704.53;1747303;81;21132;-74
2022/07/16 10:49:53;;;;;;;29.42;21.15;;;;;;;33.02;65.96;100695.39;1739978;82;21119;-75
2022/07/16 10:52:23;;;;;;;26.00;22.60;;;;;;;33.31;64.28;100698.89;1727002;82;21091;-75
2022/07/16 10:54:56;;;;;;;24.05;20.82;;;;;;;33.42;62.80;100698.72;1710252;81;21137;-75
2022/07/16 10:57:37;;;;;;;25.80;21.20;;;;;;;33.21;63.33;100689.69;1732712;81;21139;-75
2022/07/16 11:00:08;;;;;;;26.40;20.80;;;;;;;32.64;64.33;100695.59;1745597;82;21137;-76
2022/07/16 11:02:39;;;;;;;26.55;22.27;;;;;;;33.63;62.90;100682.90;1712269;82;21000;-76
2022/07/16 11:05:09;;;;;;;27.62;23.18;;;;;;;33.73;61.61;100690.44;1732363;82;21094;-77
2022/07/16 11:07:37;;;;;;;27.07;22.20;;;;;;;33.86;62.34;100692.18;1736521;82;21078;-76
2022/07/16 11:10:06;;;;;;;26.68;22.80;;;;;;;33.60;62.71;100689.98;1737427;81;21014;-76
2022/07/16 11:12:36;;;;;;;24.90;22.30;;;;;;;34.56;60.10;100688.52;1741825;80;21040;-76
2022/07/16 11:15:03;;;;;;;29.57;24.37;;;;;;;34.35;60.14;100687.91;1737618;81;21535;-75
2022/07/16 11:17:33;;;;;;;33.80;27.10;;;;;;;34.67;59.43;100691.80;1741446;81;21594;-74
2022/07/16 11:20:05;;;;;;;29.10;23.90;;;;;;;34.06;60.21;100684.82;1735128;82;21064;-76
2022/07/16 11:22:32;;;;;;;27.32;22.77;;;;;;;33.60;60.56;100693.99;1728607;81;21082;-74
2022/07/16 11:25:03;;;;;;;33.98;24.57;;;;;;;33.66;59.89;100681.15;1745438;81;21016;-75
2022/07/16 11:27:37;;;;;;;29.15;22.58;;;;;;;34.20;59.47;100685.55;1740383;80;21028;-76
2022/07/16 11:30:09;;;;;;;25.27;20.60;;;;;;;34.43;59.83;100684.10;1733623;82;21023;-75
2022/07/16 11:32:46;;;;;;;34.90;27.35;;;;;;;34.56;59.19;100692.52;1743321;81;21031;-76